Time;durP1;ratioP1;P1;durP2;ratioP2;P2;SDS_P1;SDS_P2;PMS_P1;PMS_P2;Temp;Humidity;BMP_temperature;BMP_pressure;BME280_temperature;BME280_humidity;BME280_pressure;Samples;Min_cycle;Max_cycle;Signal;HPM_P1;HPM_P2
2023/04/11 00:01:03;;;;;;;3.90;1.90;;;;;;;;;;5073662;28;20850;-80
2023/04/11 00:03:29;;;;;;;3.53;1.93;;;;;;;;;;5072981;28;20216;-80
2023/04/11 00:05:55;;;;;;;2.30;0.90;;;;;;;;;;5073685;28;20415;-80
2023/04/11 00:08:21;;;;;;;3.00;1.17;;;;;;;;;;5071515;28;20188;-79
2023/04/11 00:10:47;;;;;;;2.77;1.10;;;;;;;;;;5062696;28;20630;-80
2023/04/11 00:13:13;;;;;;;2.60;1.50;;;;;;;;;;5053446;28;20214;-79
2023/04/11 00:15:39;;;;;;;4.13;1.40;;;;;;;;;;5053395;28;20609;-79
2023/04/11 00:18:05;;;;;;;3.47;1.40;;;;;;;;;;5024860;28;20200;-78
2023/04/11 00:20:31;;;;;;;2.90;0.90;;;;;;;;;;5073418;28;20411;-78
2023/04/11 00:22:57;;;;;;;4.73;1.50;;;;;;;;;;5073384;28;20477;-79
2023/04/11 00:25:23;;;;;;;2.37;1.27;;;;;;;;;;5068728;28;20417;-77
2023/04/11 00:27:49;;;;;;;4.23;1.50;;;;;;;;;;5053406;28;20242;-78
2023/04/11 00:30:15;;;;;;;4.97;1.33;;;;;;;;;;5035489;28;20923;-78
2023/04/11 00:32:41;;;;;;;2.17;1.20;;;;;;;;;;5052770;28;20501;-79
2023/04/11 00:35:07;;;;;;;2.97;1.50;;;;;;;;;;5053330;28;20407;-80
2023/04/11 00:37:34;;;;;;;1.60;0.63;;;;;;;;;;5053225;28;20422;-78
2023/04/11 00:40:00;;;;;;;3.33;1.37;;;;;;;;;;5053100;28;20417;-78
2023/04/11 00:42:26;;;;;;;2.93;0.90;;;;;;;;;;5052967;28;21039;-77
2023/04/11 00:44:52;;;;;;;1.90;0.70;;;;;;;;;;5052728;28;20886;-77
2023/04/11 00:47:39;;;;;;;3.60;1.90;;;;;;;;;;5052343;28;20452;-77
2023/04/11 00:50:05;;;;;;;1.73;1.27;;;;;;;;;;5052852;28;20423;-78
2023/04/11 00:52:31;;;;;;;2.60;1.97;;;;;;;;;;5052989;28;20411;-78
2023/04/11 00:54:57;;;;;;;3.17;1.37;;;;;;;;;;5052883;28;20413;-77
2023/04/11 00:57:24;;;;;;;3.80;1.93;;;;;;;;;;5035119;28;20472;-77
2023/04/11 00:59:50;;;;;;;3.80;1.83;;;;;;;;;;5052695;28;20413;-77
2023/04/11 01:02:17;;;;;;;3.70;1.90;;;;;;;;;;5034629;28;20476;-77
2023/04/11 01:04:44;;;;;;;2.57;1.67;;;;;;;;;;5053078;28;20427;-77
2023/04/11 01:07:10;;;;;;;3.30;1.73;;;;;;;;;;5052871;28;20444;-77
2023/04/11 01:09:37;;;;;;;3.60;2.37;;;;;;;;;;5035142;28;20508;-78
2023/04/11 01:12:04;;;;;;;4.50;1.93;;;;;;;;;;5052825;28;20420;-77
2023/04/11 01:14:30;;;;;;;3.33;1.23;;;;;;;;;;5052973;28;20418;-77
2023/04/11 01:16:56;;;;;;;5.10;1.40;;;;;;;;;;5034694;28;20935;-79
2023/04/11 01:19:23;;;;;;;3.50;1.80;;;;;;;;;;5052997;28;20414;-78
2023/04/11 01:21:50;;;;;;;3.97;2.30;;;;;;;;;;5034721;28;20416;-77
2023/04/11 01:24:16;;;;;;;4.33;2.50;;;;;;;;;;5034851;28;20425;-77
2023/04/11 01:26:42;;;;;;;3.23;1.70;;;;;;;;;;5052746;28;20416;-77
2023/04/11 01:29:08;;;;;;;2.70;1.23;;;;;;;;;;5034910;28;20916;-80
2023/04/11 01:31:36;;;;;;;4.17;1.97;;;;;;;;;;5052713;28;20439;-78
2023/04/11 01:34:03;;;;;;;3.30;1.27;;;;;;;;;;5034244;28;20454;-78
2023/04/11 01:36:30;;;;;;;2.80;1.70;;;;;;;;;;5052658;28;20408;-79
2023/04/11 01:38:56;;;;;;;3.13;2.10;;;;;;;;;;5052586;28;20411;-78
2023/04/11 01:41:23;;;;;;;4.70;2.20;;;;;;;;;;5052554;28;20915;-79
2023/04/11 01:43:49;;;;;;;4.67;2.20;;;;;;;;;;5052451;28;20472;-78
2023/04/11 01:46:15;;;;;;;4.10;1.37;;;;;;;;;;5052490;28;20444;-77
2023/04/11 01:48:41;;;;;;;4.23;1.80;;;;;;;;;;5007381;28;20435;-78
2023/04/11 01:51:07;;;;;;;3.43;1.60;;;;;;;;;;5072580;28;20886;-77
2023/04/11 01:53:33;;;;;;;2.63;1.57;;;;;;;;;;5072508;28;20516;-77
2023/04/11 01:55:59;;;;;;;2.57;1.67;;;;;;;;;;5072433;28;20420;-78
2023/04/11 01:58:25;;;;;;;5.57;1.73;;;;;;;;;;5075684;28;20412;-76
2023/04/11 02:00:51;;;;;;;2.20;1.13;;;;;;;;;;5076050;28;20436;-76
2023/04/11 02:03:19;;;;;;;5.30;1.30;;;;;;;;;;5075699;28;20210;-75
2023/04/11 02:05:45;;;;;;;2.37;1.37;;;;;;;;;;5076086;28;20176;-77
2023/04/11 02:08:11;;;;;;;2.60;1.40;;;;;;;;;;5076025;28;20895;-75
2023/04/11 02:10:37;;;;;;;2.87;1.23;;;;;;;;;;5057899;28;20185;-77
2023/04/11 02:13:03;;;;;;;2.23;1.00;;;;;;;;;;5075919;28;20440;-79
2023/04/11 02:15:29;;;;;;;1.77;0.90;;;;;;;;;;5057783;28;20471;-80
2023/04/11 02:17:55;;;;;;;2.90;0.83;;;;;;;;;;5075505;28;20415;-78
2023/04/11 02:20:22;;;;;;;4.60;1.50;;;;;;;;;;5075815;28;20502;-80
2023/04/11 02:22:48;;;;;;;2.53;1.07;;;;;;;;;;5075706;28;20477;-81
2023/04/11 02:25:17;;;;;;;6.43;1.67;;;;;;;;;;5075716;28;20745;-79
2023/04/11 02:27:43;;;;;;;1.77;1.10;;;;;;;;;;5057626;28;20429;-77
2023/04/11 02:30:09;;;;;;;2.83;0.47;;;;;;;;;;5075571;28;20761;-78
2023/04/11 02:32:36;;;;;;;5.97;1.30;;;;;;;;;;5075010;28;20968;-78
2023/04/11 02:35:03;;;;;;;2.53;0.93;;;;;;;;;;5075596;28;20507;-77
2023/04/11 02:37:29;;;;;;;1.00;0.50;;;;;;;;;;5057546;28;20541;-76
2023/04/11 02:39:57;;;;;;;1.43;0.80;;;;;;;;;;5075380;28;20413;-79
2023/04/11 02:42:23;;;;;;;1.80;0.30;;;;;;;;;;5057270;28;20463;-77
2023/04/11 02:44:49;;;;;;;1.97;0.50;;;;;;;;;;5075318;28;20498;-79
2023/04/11 02:47:15;;;;;;;1.60;0.30;;;;;;;;;;5074884;28;20408;-78
2023/04/11 02:49:41;;;;;;;1.10;0.77;;;;;;;;;;5075143;28;20561;-78
2023/04/11 02:52:07;;;;;;;1.00;0.30;;;;;;;;;;5075190;28;20422;-77
2023/04/11 02:54:35;;;;;;;1.50;0.50;;;;;;;;;;5057037;28;20514;-77
2023/04/11 02:57:01;;;;;;;1.60;0.30;;;;;;;;;;5074968;28;20896;-79
2023/04/11 02:59:27;;;;;;;1.60;0.40;;;;;;;;;;5075034;28;20482;-77
2023/04/11 03:01:57;;;;;;;2.13;0.53;;;;;;;;;;5056594;28;20420;-77
2023/04/11 03:04:23;;;;;;;2.07;0.53;;;;;;;;;;5075015;28;20473;-81
2023/04/11 03:06:49;;;;;;;1.03;0.40;;;;;;;;;;5074852;28;20410;-77
2023/04/11 03:09:15;;;;;;;2.33;1.20;;;;;;;;;;5074038;28;20420;-78
2023/04/11 03:11:41;;;;;;;2.60;1.13;;;;;;;;;;5074822;28;20413;-78
2023/04/11 03:14:07;;;;;;;3.90;1.43;;;;;;;;;;5074818;28;20671;-79
2023/04/11 03:16:33;;;;;;;4.70;1.40;;;;;;;;;;5074296;28;20416;-78
2023/04/11 03:18:59;;;;;;;1.40;0.73;;;;;;;;;;5039204;28;20566;-77
2023/04/11 03:21:26;;;;;;;1.87;0.30;;;;;;;;;;5028602;28;20213;-78
2023/04/11 03:23:52;;;;;;;2.57;0.40;;;;;;;;;;5054483;28;20514;-79
2023/04/11 03:26:18;;;;;;;1.60;0.30;;;;;;;;;;5053621;28;20414;-79
2023/04/11 03:28:44;;;;;;;0.87;0.30;;;;;;;;;;5054371;28;20427;-78
2023/04/11 03:31:10;;;;;;;2.67;0.63;;;;;;;;;;5036581;28;20419;-78
2023/04/11 03:33:37;;;;;;;0.90;0.20;;;;;;;;;;5053862;28;20497;-78
2023/04/11 03:36:03;;;;;;;0.83;0.20;;;;;;;;;;5054319;28;20411;-80
2023/04/11 03:38:29;;;;;;;0.50;0.20;;;;;;;;;;5054239;28;20416;-79
2023/04/11 03:40:55;;;;;;;1.80;0.40;;;;;;;;;;5054239;28;20400;-79
2023/04/11 03:43:21;;;;;;;1.03;0.30;;;;;;;;;;5054166;28;20502;-78
2023/04/11 03:45:47;;;;;;;1.30;0.20;;;;;;;;;;5054158;28;20752;-77
2023/04/11 03:48:12;;;;;;;2.17;0.20;;;;;;;;;;5053673;28;20802;-78
2023/04/11 03:50:39;;;;;;;1.03;0.20;;;;;;;;;;5054159;28;20830;-78
2023/04/11 03:53:06;;;;;;;2.03;0.30;;;;;;;;;;5053996;28;20457;-80
2023/04/11 03:55:31;;;;;;;0.50;0.20;;;;;;;;;;5053949;28;20412;-78
2023/04/11 03:57:57;;;;;;;0.90;0.20;;;;;;;;;;5053900;28;20416;-78
2023/04/11 04:00:23;;;;;;;0.93;0.27;;;;;;;;;;5053825;28;20425;-78
2023/04/11 04:02:49;;;;;;;0.70;0.30;;;;;;;;;;5053501;28;20978;-79
2023/04/11 04:05:15;;;;;;;0.97;0.20;;;;;;;;;;5053800;28;20409;-78
2023/04/11 04:07:41;;;;;;;0.90;0.20;;;;;;;;;;5053713;28;20419;-78
2023/04/11 04:10:07;;;;;;;0.53;0.30;;;;;;;;;;5035991;28;20502;-78
2023/04/11 04:12:33;;;;;;;0.40;0.20;;;;;;;;;;5035825;28;20956;-79
2023/04/11 04:14:59;;;;;;;0.97;0.30;;;;;;;;;;5053624;28;20497;-78
2023/04/11 04:17:25;;;;;;;1.07;0.20;;;;;;;;;;5053309;28;20409;-78
2023/04/11 04:19:51;;;;;;;1.93;0.20;;;;;;;;;;5035683;28;20426;-78
2023/04/11 04:22:17;;;;;;;0.70;0.20;;;;;;;;;;5035640;28;20518;-78
2023/04/11 04:24:46;;;;;;;1.57;0.87;;;;;;;;;;5053456;28;20525;-78
2023/04/11 04:27:12;;;;;;;1.10;0.30;;;;;;;;;;5012891;28;20462;-78
2023/04/11 04:29:45;;;;;;;4.03;0.20;;;;;;;;;;5035464;28;20895;-77
2023/04/11 04:32:11;;;;;;;1.00;0.30;;;;;;;;;;5043582;28;20438;-77
2023/04/11 04:34:40;;;;;;;1.80;0.40;;;;;;;;;;5035164;28;20817;-77
2023/04/11 04:37:06;;;;;;;1.47;0.20;;;;;;;;;;5053216;28;20485;-79
2023/04/11 04:39:37;;;;;;;1.07;0.30;;;;;;;;;;5035182;28;20561;-78
2023/04/11 04:42:03;;;;;;;0.80;0.30;;;;;;;;;;5052889;28;20415;-78
2023/04/11 04:44:29;;;;;;;1.13;0.30;;;;;;;;;;5033923;28;20427;-78
2023/04/11 04:46:55;;;;;;;0.77;0.20;;;;;;;;;;5050806;28;20407;-78
2023/04/11 04:49:21;;;;;;;0.53;0.10;;;;;;;;;;5051661;28;20509;-79
2023/04/11 04:51:47;;;;;;;1.70;0.20;;;;;;;;;;5052933;28;20400;-78
2023/04/11 04:54:13;;;;;;;0.43;0.30;;;;;;;;;;5052864;28;20425;-78
2023/04/11 04:56:40;;;;;;;1.20;0.30;;;;;;;;;;5052676;28;20415;-77
2023/04/11 04:59:06;;;;;;;2.70;0.30;;;;;;;;;;5052926;28;20423;-77
2023/04/11 05:01:33;;;;;;;1.67;0.47;;;;;;;;;;5052484;28;20415;-78
2023/04/11 05:04:00;;;;;;;2.10;0.50;;;;;;;;;;5052312;28;20440;-78
2023/04/11 05:06:28;;;;;;;0.73;0.37;;;;;;;;;;5052825;28;20614;-78
2023/04/11 05:08:55;;;;;;;0.83;0.20;;;;;;;;;;5052693;28;20895;-78
2023/04/11 05:11:21;;;;;;;1.70;0.30;;;;;;;;;;5052788;28;20407;-79
2023/04/11 05:13:47;;;;;;;1.40;0.27;;;;;;;;;;5052647;28;20404;-77
2023/04/11 05:16:12;;;;;;;0.93;0.20;;;;;;;;;;5052316;28;20907;-78
2023/04/11 05:18:38;;;;;;;1.23;0.40;;;;;;;;;;5052676;28;20464;-78
2023/04/11 05:21:04;;;;;;;1.47;0.27;;;;;;;;;;5052737;28;20183;-78
2023/04/11 05:23:30;;;;;;;2.87;0.30;;;;;;;;;;5052377;28;20217;-78
2023/04/11 05:25:56;;;;;;;0.40;0.27;;;;;;;;;;5052457;28;20837;-77
2023/04/11 05:28:22;;;;;;;3.93;0.33;;;;;;;;;;5034590;28;20530;-78
2023/04/11 05:30:48;;;;;;;2.10;1.60;;;;;;;;;;5052453;28;20167;-78
2023/04/11 05:33:14;;;;;;;4.20;0.33;;;;;;;;;;5037405;28;20471;-78
2023/04/11 05:35:40;;;;;;;2.70;0.20;;;;;;;;;;5038663;28;20420;-78
2023/04/11 05:38:06;;;;;;;0.90;0.20;;;;;;;;;;5056316;28;20413;-79
2023/04/11 05:40:32;;;;;;;4.23;0.40;;;;;;;;;;5056414;28;20909;-80
2023/04/11 05:43:01;;;;;;;1.53;0.30;;;;;;;;;;5056316;28;20473;-79
2023/04/11 05:45:27;;;;;;;2.47;0.47;;;;;;;;;;5056225;28;20923;-78
2023/04/11 05:47:57;;;;;;;2.63;0.30;;;;;;;;;;5055785;28;20411;-78
2023/04/11 05:50:23;;;;;;;1.03;0.23;;;;;;;;;;5056052;28;20419;-79
2023/04/11 05:52:49;;;;;;;2.97;0.47;;;;;;;;;;5038096;28;20407;-78
2023/04/11 05:55:15;;;;;;;4.07;0.40;;;;;;;;;;5055865;28;20418;-78
2023/04/11 05:57:41;;;;;;;4.53;0.40;;;;;;;;;;5056042;28;20422;-78
2023/04/11 06:00:11;;;;;;;5.73;0.37;;;;;;;;;;5056071;28;20409;-80
2023/04/11 06:02:39;;;;;;;4.43;0.40;;;;;;;;;;5055631;28;20467;-79
2023/04/11 06:05:05;;;;;;;3.97;0.30;;;;;;;;;;5055909;28;20809;-80
2023/04/11 06:07:32;;;;;;;2.30;0.30;;;;;;;;;;5055574;28;20425;-79
2023/04/11 06:09:58;;;;;;;1.00;0.40;;;;;;;;;;5037720;28;20508;-81
2023/04/11 06:12:24;;;;;;;1.97;0.40;;;;;;;;;;5035600;28;20509;-81
2023/04/11 06:14:51;;;;;;;3.20;0.50;;;;;;;;;;5075987;28;20411;-79
2023/04/11 06:17:17;;;;;;;3.70;0.93;;;;;;;;;;5057752;28;20180;-80
2023/04/11 06:19:43;;;;;;;3.33;0.30;;;;;;;;;;5075940;28;20409;-80
2023/04/11 06:22:08;;;;;;;2.13;0.40;;;;;;;;;;5057869;28;20491;-79
2023/04/11 06:24:39;;;;;;;1.30;0.30;;;;;;;;;;5057845;28;20178;-79
2023/04/11 06:27:05;;;;;;;3.80;0.63;;;;;;;;;;5075720;28;20944;-81
2023/04/11 06:29:31;;;;;;;1.07;0.40;;;;;;;;;;5075479;28;20513;-77
2023/04/11 06:31:58;;;;;;;5.13;0.87;;;;;;;;;;5074977;28;20414;-79
2023/04/11 06:34:24;;;;;;;3.03;0.90;;;;;;;;;;5075320;28;20473;-79
2023/04/11 06:36:50;;;;;;;1.83;0.43;;;;;;;;;;5075477;28;20885;-79
2023/04/11 06:39:16;;;;;;;1.60;0.40;;;;;;;;;;5075362;28;20421;-80
2023/04/11 06:41:42;;;;;;;3.80;1.00;;;;;;;;;;5075407;28;20197;-79
2023/04/11 06:44:08;;;;;;;4.00;1.17;;;;;;;;;;5074119;28;20474;-78
2023/04/11 06:46:34;;;;;;;2.33;1.33;;;;;;;;;;5056934;28;20868;-79
2023/04/11 06:49:00;;;;;;;4.17;0.57;;;;;;;;;;5057368;28;20419;-79
2023/04/11 06:51:26;;;;;;;4.47;1.13;;;;;;;;;;5063957;28;20912;-78
2023/04/11 06:53:52;;;;;;;2.07;1.00;;;;;;;;;;5055234;28;20408;-78
2023/04/11 06:56:18;;;;;;;2.83;0.50;;;;;;;;;;5055142;28;20415;-81
2023/04/11 06:58:44;;;;;;;1.37;0.90;;;;;;;;;;5054825;28;20505;-80
2023/04/11 07:01:11;;;;;;;4.20;1.20;;;;;;;;;;5054522;28;21021;-79
2023/04/11 07:03:37;;;;;;;3.63;0.97;;;;;;;;;;5054898;28;21019;-78
2023/04/11 07:06:03;;;;;;;1.83;1.13;;;;;;;;;;5054803;28;20559;-79
2023/04/11 07:08:29;;;;;;;3.80;1.50;;;;;;;;;;5054915;28;20549;-78
2023/04/11 07:10:55;;;;;;;3.67;1.20;;;;;;;;;;5001972;28;20443;-78
2023/04/11 07:13:21;;;;;;;2.50;1.53;;;;;;;;;;5075131;28;20421;-80
2023/04/11 07:15:46;;;;;;;2.63;1.27;;;;;;;;;;5074870;28;20167;-79
2023/04/11 07:18:13;;;;;;;4.80;1.33;;;;;;;;;;5074705;28;20416;-80
2023/04/11 07:20:38;;;;;;;1.90;1.30;;;;;;;;;;5056638;28;20185;-80
2023/04/11 07:23:04;;;;;;;1.87;0.83;;;;;;;;;;5074431;28;20963;-80
2023/04/11 07:25:32;;;;;;;1.43;0.83;;;;;;;;;;5074817;28;20400;-80
2023/04/11 07:27:59;;;;;;;0.60;0.20;;;;;;;;;;5074492;28;20621;-79
2023/04/11 07:30:24;;;;;;;0.70;0.30;;;;;;;;;;5056352;28;20929;-79
2023/04/11 07:32:50;;;;;;;0.80;0.30;;;;;;;;;;5052071;28;20470;-79
2023/04/11 07:35:16;;;;;;;0.70;0.20;;;;;;;;;;5054402;28;20400;-80
2023/04/11 07:37:44;;;;;;;0.40;0.20;;;;;;;;;;5054304;28;20417;-82
2023/04/11 07:40:12;;;;;;;0.63;0.20;;;;;;;;;;5054258;28;20402;-80
2023/04/11 07:42:38;;;;;;;3.23;0.40;;;;;;;;;;5054028;28;20493;-80
2023/04/11 07:45:05;;;;;;;0.60;0.30;;;;;;;;;;5054085;28;20409;-80
2023/04/11 07:47:31;;;;;;;3.27;0.40;;;;;;;;;;5052443;28;20464;-79
2023/04/11 07:49:57;;;;;;;0.60;0.20;;;;;;;;;;5054072;28;20418;-81
2023/04/11 07:52:23;;;;;;;0.40;0.20;;;;;;;;;;5054058;28;20418;-79
2023/04/11 07:54:49;;;;;;;0.70;0.20;;;;;;;;;;5053755;28;20841;-80
2023/04/11 07:57:15;;;;;;;2.20;0.30;;;;;;;;;;5052673;28;20771;-79
2023/04/11 07:59:41;;;;;;;1.27;0.20;;;;;;;;;;5049337;28;20207;-78
2023/04/11 08:02:07;;;;;;;1.03;0.20;;;;;;;;;;5040861;28;20187;-80
2023/04/11 08:04:33;;;;;;;0.33;0.20;;;;;;;;;;5041816;28;20429;-80
2023/04/11 08:06:59;;;;;;;1.80;0.30;;;;;;;;;;5044324;28;20931;-79
2023/04/11 08:09:26;;;;;;;1.07;0.20;;;;;;;;;;5048432;28;20431;-79
2023/04/11 08:11:52;;;;;;;0.40;0.20;;;;;;;;;;5011417;28;20445;-81
2023/04/11 08:14:18;;;;;;;0.40;0.20;;;;;;;;;;5053643;28;20417;-86
2023/04/11 08:16:47;;;;;;;1.43;0.30;;;;;;;;;;5052106;28;20809;-79
2023/04/11 08:19:13;;;;;;;0.43;0.40;;;;;;;;;;5052267;28;20743;-78
2023/04/11 08:21:40;;;;;;;0.77;0.40;;;;;;;;;;5053478;28;20448;-81
2023/04/11 08:24:06;;;;;;;0.80;0.30;;;;;;;;;;5053333;28;20553;-81
2023/04/11 08:26:31;;;;;;;1.07;0.30;;;;;;;;;;5052093;28;20513;-80
2023/04/11 08:28:57;;;;;;;1.73;0.20;;;;;;;;;;5052159;28;20932;-79
2023/04/11 08:31:23;;;;;;;2.63;0.20;;;;;;;;;;5053067;28;20418;-81
2023/04/11 08:33:49;;;;;;;0.83;0.20;;;;;;;;;;5066019;28;20855;-81
2023/04/11 08:36:15;;;;;;;1.00;0.23;;;;;;;;;;5055451;28;20502;-80
2023/04/11 08:38:41;;;;;;;0.87;0.20;;;;;;;;;;5073192;28;20918;-82
2023/04/11 08:41:07;;;;;;;0.73;0.27;;;;;;;;;;5052373;28;20424;-81
2023/04/11 08:43:34;;;;;;;0.60;0.30;;;;;;;;;;5063617;28;20920;-78
2023/04/11 08:46:02;;;;;;;0.77;0.30;;;;;;;;;;5061487;28;20950;-79
2023/04/11 08:48:28;;;;;;;1.17;0.30;;;;;;;;;;5060855;28;20891;-80
2023/04/11 08:50:55;;;;;;;0.70;0.40;;;;;;;;;;5052869;28;20431;-79
2023/04/11 08:53:23;;;;;;;2.10;0.47;;;;;;;;;;5068115;28;20824;-80
2023/04/11 08:55:49;;;;;;;2.00;0.30;;;;;;;;;;5055241;28;20755;-81
2023/04/11 08:58:15;;;;;;;5.30;0.33;;;;;;;;;;5072996;28;20409;-82
2023/04/11 09:00:42;;;;;;;2.80;0.67;;;;;;;;;;5054682;28;20455;-83
2023/04/11 09:03:09;;;;;;;2.30;0.70;;;;;;;;;;5055083;28;20517;-80
2023/04/11 09:05:35;;;;;;;3.20;1.23;;;;;;;;;;5072952;28;20401;-82
2023/04/11 09:08:05;;;;;;;3.00;1.83;;;;;;;;;;5072301;28;20413;-81
2023/04/11 09:10:31;;;;;;;3.60;2.20;;;;;;;;;;5055203;28;20428;-81
2023/04/11 09:12:57;;;;;;;3.80;2.30;;;;;;;;;;5054815;28;20423;-82
2023/04/11 09:15:27;;;;;;;4.17;3.40;;;;;;;;;;5072745;28;20415;-82
2023/04/11 09:17:53;;;;;;;7.30;3.37;;;;;;;;;;5072830;28;20417;-82
2023/04/11 09:20:21;;;;;;;6.00;3.73;;;;;;;;;;5054870;28;20845;-82
2023/04/11 09:22:48;;;;;;;4.83;2.93;;;;;;;;;;5072759;28;20515;-83
2023/04/11 09:25:14;;;;;;;4.60;2.90;;;;;;;;;;5054784;28;20771;-83
2023/04/11 09:27:40;;;;;;;6.77;2.67;;;;;;;;;;5072752;28;20406;-83
2023/04/11 09:30:32;;;;;;;6.17;3.10;;;;;;;;;;5054647;28;20459;-86
2023/04/11 09:32:58;;;;;;;5.00;3.60;;;;;;;;;;5062392;28;20700;-84
2023/04/11 09:35:27;;;;;;;5.03;3.00;;;;;;;;;;5054733;28;20472;-83
2023/04/11 09:38:02;;;;;;;6.50;3.67;;;;;;;;;;5054688;28;20486;-83
2023/04/11 09:40:30;;;;;;;3.33;2.30;;;;;;;;;;5054641;28;20416;-82
2023/04/11 09:43:01;;;;;;;7.03;2.97;;;;;;;;;;5054534;28;20836;-82
2023/04/11 09:45:28;;;;;;;6.57;3.47;;;;;;;;;;5072238;28;20831;-83
2023/04/11 09:48:14;;;;;;;3.10;2.00;;;;;;;;;;5072527;28;20430;-83
2023/04/11 09:50:41;;;;;;;5.03;1.83;;;;;;;;;;5030886;28;20914;-85
2023/04/11 09:53:07;;;;;;;3.73;1.30;;;;;;;;;;5048513;28;20431;-83
2023/04/11 09:55:35;;;;;;;4.17;1.47;;;;;;;;;;5036426;28;20417;-90
2023/04/11 09:58:05;;;;;;;2.20;1.20;;;;;;;;;;5040758;28;20786;-87
2023/04/11 10:00:31;;;;;;;4.10;1.60;;;;;;;;;;5032702;28;20763;-83
2023/04/11 10:02:58;;;;;;;2.57;1.60;;;;;;;;;;5054611;28;20471;-87
2023/04/11 10:05:47;;;;;;;6.07;2.03;;;;;;;;;;5055167;28;20415;-87
2023/04/11 10:08:20;;;;;;;4.20;1.67;;;;;;;;;;5053524;28;20428;-85
2023/04/11 10:10:46;;;;;;;3.63;1.57;;;;;;;;;;5051668;28;20409;-83
2023/04/11 10:13:31;;;;;;;2.00;1.40;;;;;;;;;;5040741;28;20459;-90
2023/04/11 10:16:17;;;;;;;4.83;1.10;;;;;;;;;;5053243;28;20408;-88
2023/04/11 10:18:52;;;;;;;2.47;1.53;;;;;;;;;;5065306;28;20882;-85
2023/04/11 10:21:33;;;;;;;3.50;1.00;;;;;;;;;;5050707;28;20417;-84
2023/04/11 10:24:10;;;;;;;2.20;1.17;;;;;;;;;;5041317;28;20507;-84
2023/04/11 10:26:54;;;;;;;3.50;0.50;;;;;;;;;;5056443;28;20432;-83
2023/04/11 10:29:32;;;;;;;2.23;0.87;;;;;;;;;;5056357;28;20408;-89
2023/04/11 10:32:11;;;;;;;1.77;0.73;;;;;;;;;;5058195;28;20782;-84
2023/04/11 10:35:00;;;;;;;2.73;0.30;;;;;;;;;;5039117;28;20462;-83
2023/04/11 10:37:29;;;;;;;1.60;0.30;;;;;;;;;;5038417;28;20464;-83
2023/04/11 10:40:01;;;;;;;1.80;0.40;;;;;;;;;;5038735;28;20504;-84
2023/04/11 10:42:30;;;;;;;1.27;0.30;;;;;;;;;;5056190;28;20458;-83
2023/04/11 10:45:16;;;;;;;0.50;0.30;;;;;;;;;;5038463;28;20419;-90
2023/04/11 10:47:42;;;;;;;0.60;0.20;;;;;;;;;;5038194;28;20419;-86
2023/04/11 10:50:29;;;;;;;1.07;0.20;;;;;;;;;;5038433;28;20433;-90
2023/04/11 10:52:56;;;;;;;0.53;0.20;;;;;;;;;;5038418;28;20940;-89
2023/04/11 10:55:22;;;;;;;1.00;0.20;;;;;;;;;;5038890;28;20416;-91
2023/04/11 10:58:23;;;;;;;1.13;0.20;;;;;;;;;;4986645;28;20485;-88
2023/04/11 11:00:49;;;;;;;0.40;0.20;;;;;;;;;;5066527;28;20751;-82
2023/04/11 11:03:15;;;;;;;1.37;0.20;;;;;;;;;;5066759;28;20509;-85
2023/04/11 11:05:41;;;;;;;1.20;0.20;;;;;;;;;;5061479;28;20443;-83
2023/04/11 11:08:07;;;;;;;0.57;0.20;;;;;;;;;;5076044;28;20427;-90
2023/04/11 11:10:37;;;;;;;1.50;0.40;;;;;;;;;;5076189;28;20406;-90
2023/04/11 11:13:03;;;;;;;1.50;0.30;;;;;;;;;;5075614;28;20905;-83
2023/04/11 11:15:30;;;;;;;2.20;0.20;;;;;;;;;;5056562;28;20402;-83
2023/04/11 11:17:56;;;;;;;1.03;0.40;;;;;;;;;;5074818;28;20787;-86
2023/04/11 11:20:22;;;;;;;0.60;0.20;;;;;;;;;;5074775;28;20462;-87
2023/04/11 11:22:57;;;;;;;0.83;0.20;;;;;;;;;;5074651;28;20267;-84
2023/04/11 11:25:24;;;;;;;0.70;0.40;;;;;;;;;;5056942;28;20432;-84
2023/04/11 11:27:57;;;;;;;2.73;0.53;;;;;;;;;;5074640;28;20542;-89
2023/04/11 11:30:23;;;;;;;2.20;0.30;;;;;;;;;;5052838;28;20903;-91
2023/04/11 11:32:49;;;;;;;1.20;0.20;;;;;;;;;;5073089;28;20491;-87
2023/04/11 11:35:15;;;;;;;2.50;0.23;;;;;;;;;;5072687;28;20957;-85
2023/04/11 11:37:41;;;;;;;3.27;0.70;;;;;;;;;;5061453;28;20420;-85
2023/04/11 11:40:11;;;;;;;1.03;0.30;;;;;;;;;;5061108;28;20460;-85
2023/04/11 11:42:37;;;;;;;1.07;0.20;;;;;;;;;;5037118;28;20473;-84
2023/04/11 11:45:21;;;;;;;3.43;0.30;;;;;;;;;;5063062;28;20449;-87
2023/04/11 11:47:48;;;;;;;4.00;0.20;;;;;;;;;;5049805;28;20421;-88
2023/04/11 11:50:32;;;;;;;3.20;1.00;;;;;;;;;;5061487;28;20418;-90
2023/04/11 11:53:11;;;;;;;1.67;0.57;;;;;;;;;;5061109;28;20439;-86
2023/04/11 11:55:38;;;;;;;2.63;0.60;;;;;;;;;;5040337;28;20429;-85
2023/04/11 11:58:04;;;;;;;1.60;0.83;;;;;;;;;;5055965;28;20504;-89
2023/04/11 12:00:31;;;;;;;2.93;0.60;;;;;;;;;;5071771;28;20430;-84
2023/04/11 12:02:58;;;;;;;0.80;0.20;;;;;;;;;;5072089;28;20955;-84
2023/04/11 12:05:28;;;;;;;2.30;0.50;;;;;;;;;;5063581;28;20423;-84
2023/04/11 12:07:55;;;;;;;3.07;0.40;;;;;;;;;;5072010;28;20417;-84
2023/04/11 12:10:21;;;;;;;2.10;0.70;;;;;;;;;;5065435;28;20940;-89
2023/04/11 12:12:52;;;;;;;2.43;0.63;;;;;;;;;;5061927;28;20414;-86
2023/04/11 12:15:19;;;;;;;4.13;1.33;;;;;;;;;;5045171;28;20524;-83
2023/04/11 12:17:49;;;;;;;1.13;0.40;;;;;;;;;;5029131;28;20911;-83
2023/04/11 12:20:15;;;;;;;0.77;0.20;;;;;;;;;;5045468;28;20537;-85
2023/04/11 12:22:41;;;;;;;3.70;0.50;;;;;;;;;;5039459;28;20473;-85
2023/04/11 12:25:08;;;;;;;2.93;0.83;;;;;;;;;;5068646;28;20484;-83
2023/04/11 12:27:38;;;;;;;3.33;0.63;;;;;;;;;;5060304;28;20420;-80
2023/04/11 12:30:04;;;;;;;5.20;0.87;;;;;;;;;;5042158;28;21013;-83
2023/04/11 12:32:34;;;;;;;2.27;0.90;;;;;;;;;;5050139;28;20419;-82
2023/04/11 12:35:00;;;;;;;2.50;0.60;;;;;;;;;;5038195;28;20503;-83
2023/04/11 12:37:26;;;;;;;2.90;0.73;;;;;;;;;;5053657;28;20421;-83
2023/04/11 12:40:15;;;;;;;1.00;0.30;;;;;;;;;;5044967;28;20427;-83
2023/04/11 12:42:42;;;;;;;1.80;0.50;;;;;;;;;;5050391;28;20867;-83
2023/04/11 12:45:08;;;;;;;1.60;0.50;;;;;;;;;;5043619;28;20439;-81
2023/04/11 12:47:35;;;;;;;3.07;0.50;;;;;;;;;;5050599;28;20419;-86
2023/04/11 12:50:01;;;;;;;1.27;0.70;;;;;;;;;;5051086;28;20419;-83
2023/04/11 12:52:28;;;;;;;2.23;0.47;;;;;;;;;;5052284;28;20909;-86
2023/04/11 12:54:54;;;;;;;1.43;0.50;;;;;;;;;;5057589;28;20431;-88
2023/04/11 12:57:20;;;;;;;1.00;0.50;;;;;;;;;;5072764;28;20417;-91
2023/04/11 12:59:46;;;;;;;2.67;0.30;;;;;;;;;;5052561;28;20467;-91
2023/04/11 13:02:12;;;;;;;6.43;1.37;;;;;;;;;;5058769;28;20413;-89
2023/04/11 13:04:38;;;;;;;4.67;0.33;;;;;;;;;;5054430;28;20504;-85
2023/04/11 13:07:04;;;;;;;2.80;0.43;;;;;;;;;;5054854;28;20849;-87
2023/04/11 13:09:32;;;;;;;4.20;0.40;;;;;;;;;;5071555;28;20741;-85
2023/04/11 13:12:00;;;;;;;3.20;0.60;;;;;;;;;;5054823;28;20184;-85
2023/04/11 13:14:26;;;;;;;1.83;0.50;;;;;;;;;;5033088;28;20434;-84
2023/04/11 13:16:52;;;;;;;4.53;1.23;;;;;;;;;;5049750;28;20413;-85
2023/04/11 13:19:18;;;;;;;1.83;0.47;;;;;;;;;;5061220;28;20423;-86
2023/04/11 13:21:44;;;;;;;1.90;0.40;;;;;;;;;;5066700;28;20436;-83
2023/04/11 13:24:10;;;;;;;1.60;0.40;;;;;;;;;;5066935;28;20825;-82
2023/04/11 13:26:37;;;;;;;2.60;0.40;;;;;;;;;;5051528;28;20411;-83
2023/04/11 13:29:02;;;;;;;3.33;0.70;;;;;;;;;;5050121;28;20455;-81
2023/04/11 13:31:28;;;;;;;2.17;0.80;;;;;;;;;;5050520;28;20467;-80
2023/04/11 13:33:56;;;;;;;3.87;1.40;;;;;;;;;;5050198;28;20477;-81
2023/04/11 13:36:22;;;;;;;4.83;1.20;;;;;;;;;;5050776;28;20175;-81
2023/04/11 13:38:52;;;;;;;2.90;0.40;;;;;;;;;;5050679;28;20469;-83
2023/04/11 13:41:18;;;;;;;3.83;0.60;;;;;;;;;;5055365;28;20472;-82
2023/04/11 13:43:44;;;;;;;3.00;0.67;;;;;;;;;;5043369;28;20877;-81
2023/04/11 13:46:11;;;;;;;3.13;0.47;;;;;;;;;;5038738;28;20421;-81
2023/04/11 13:48:37;;;;;;;4.43;0.60;;;;;;;;;;5063056;28;20750;-82
2023/04/11 13:51:06;;;;;;;7.23;0.63;;;;;;;;;;5046091;28;20425;-82
2023/04/11 13:53:34;;;;;;;4.30;0.83;;;;;;;;;;5034294;28;20518;-82
2023/04/11 13:56:02;;;;;;;2.53;0.70;;;;;;;;;;5059174;28;20427;-81
2023/04/11 13:58:28;;;;;;;5.50;0.83;;;;;;;;;;5056495;28;20481;-82
2023/04/11 14:00:56;;;;;;;7.23;0.90;;;;;;;;;;5051640;28;20419;-83
2023/04/11 14:03:23;;;;;;;2.90;0.70;;;;;;;;;;5054171;28;20480;-82
2023/04/11 14:05:50;;;;;;;2.50;0.70;;;;;;;;;;5036167;28;20421;-80
2023/04/11 14:08:17;;;;;;;1.30;0.60;;;;;;;;;;5066103;28;20428;-82
2023/04/11 14:10:43;;;;;;;2.23;0.50;;;;;;;;;;5047581;28;20433;-79
2023/04/11 14:13:10;;;;;;;4.60;1.57;;;;;;;;;;5052472;28;20548;-81
2023/04/11 14:15:36;;;;;;;1.77;0.40;;;;;;;;;;5056720;28;20405;-80
2023/04/11 14:18:05;;;;;;;1.70;1.13;;;;;;;;;;5044681;28;20481;-80
2023/04/11 14:20:31;;;;;;;1.00;0.63;;;;;;;;;;5037279;28;20429;-83
2023/04/11 14:23:00;;;;;;;3.80;0.97;;;;;;;;;;5044109;28;20607;-82
2023/04/11 14:25:26;;;;;;;3.13;0.50;;;;;;;;;;5065471;28;21014;-81
2023/04/11 14:27:52;;;;;;;3.50;0.57;;;;;;;;;;5073541;28;20412;-80
2023/04/11 14:30:18;;;;;;;4.20;0.60;;;;;;;;;;5073218;28;20417;-82
2023/04/11 14:32:44;;;;;;;4.33;1.13;;;;;;;;;;5047720;28;20425;-81
2023/04/11 14:35:10;;;;;;;1.13;0.40;;;;;;;;;;5035484;28;20866;-81
2023/04/11 14:37:36;;;;;;;4.13;0.73;;;;;;;;;;5044263;28;20507;-84
2023/04/11 14:40:09;;;;;;;3.33;0.97;;;;;;;;;;5053302;28;20552;-83
2023/04/11 14:42:35;;;;;;;5.40;0.80;;;;;;;;;;5065740;28;20547;-82
2023/04/11 14:45:01;;;;;;;1.17;0.50;;;;;;;;;;5040508;28;20422;-83